sensor_id;sensor_type;location;lat;lon;timestamp;P1;durP1;ratioP1;P2;durP2;ratioP2
16660;SDS011;8444;52.012;5.048;2023-05-14T00:01:43;16.70;;;12.07;;
16660;SDS011;8444;52.012;5.048;2023-05-14T00:04:10;19.80;;;11.38;;
16660;SDS011;8444;52.012;5.048;2023-05-14T00:06:35;15.82;;;11.32;;
16660;SDS011;8444;52.012;5.048;2023-05-14T00:09:00;18.10;;;11.75;;
16660;SDS011;8444;52.012;5.048;2023-05-14T00:11:26;15.35;;;11.00;;
16660;SDS011;8444;52.012;5.048;2023-05-14T00:13:51;17.25;;;10.82;;
16660;SDS011;8444;52.012;5.048;2023-05-14T00:16:16;19.33;;;11.90;;
16660;SDS011;8444;52.012;5.048;2023-05-14T00:18:41;16.23;;;11.30;;
16660;SDS011;8444;52.012;5.048;2023-05-14T00:21:06;22.25;;;11.60;;
16660;SDS011;8444;52.012;5.048;2023-05-14T00:23:32;17.45;;;11.02;;
16660;SDS011;8444;52.012;5.048;2023-05-14T00:25:57;17.63;;;10.75;;
16660;SDS011;8444;52.012;5.048;2023-05-14T00:28:22;15.57;;;11.73;;
16660;SDS011;8444;52.012;5.048;2023-05-14T00:30:47;17.20;;;10.52;;
16660;SDS011;8444;52.012;5.048;2023-05-14T00:33:12;20.70;;;11.55;;
16660;SDS011;8444;52.012;5.048;2023-05-14T00:35:38;17.25;;;11.18;;
16660;SDS011;8444;52.012;5.048;2023-05-14T00:38:03;16.83;;;10.65;;
16660;SDS011;8444;52.012;5.048;2023-05-14T00:40:28;19.48;;;11.68;;
16660;SDS011;8444;52.012;5.048;2023-05-14T00:42:54;13.07;;;10.65;;
16660;SDS011;8444;52.012;5.048;2023-05-14T00:45:19;16.25;;;11.07;;
16660;SDS011;8444;52.012;5.048;2023-05-14T00:47:45;16.52;;;11.27;;
16660;SDS011;8444;52.012;5.048;2023-05-14T00:50:10;16.45;;;11.15;;
16660;SDS011;8444;52.012;5.048;2023-05-14T00:52:36;18.05;;;11.30;;
16660;SDS011;8444;52.012;5.048;2023-05-14T00:55:02;16.73;;;11.38;;
16660;SDS011;8444;52.012;5.048;2023-05-14T00:57:28;19.40;;;11.20;;
16660;SDS011;8444;52.012;5.048;2023-05-14T00:59:53;14.95;;;11.07;;
16660;SDS011;8444;52.012;5.048;2023-05-14T01:02:19;14.50;;;11.23;;
16660;SDS011;8444;52.012;5.048;2023-05-14T01:04:44;17.88;;;11.95;;
16660;SDS011;8444;52.012;5.048;2023-05-14T01:07:19;15.25;;;9.80;;
16660;SDS011;8444;52.012;5.048;2023-05-14T01:09:50;16.17;;;10.82;;
16660;SDS011;8444;52.012;5.048;2023-05-14T01:15:05;14.27;;;10.27;;
16660;SDS011;8444;52.012;5.048;2023-05-14T01:17:34;21.25;;;11.52;;
16660;SDS011;8444;52.012;5.048;2023-05-14T01:20:00;16.75;;;12.13;;
16660;SDS011;8444;52.012;5.048;2023-05-14T01:22:26;15.07;;;10.98;;
16660;SDS011;8444;52.012;5.048;2023-05-14T01:24:51;18.17;;;11.87;;
16660;SDS011;8444;52.012;5.048;2023-05-14T01:27:29;14.63;;;10.93;;
16660;SDS011;8444;52.012;5.048;2023-05-14T01:30:08;18.02;;;11.40;;
16660;SDS011;8444;52.012;5.048;2023-05-14T01:32:35;21.92;;;11.57;;
16660;SDS011;8444;52.012;5.048;2023-05-14T01:35:01;16.90;;;11.02;;
16660;SDS011;8444;52.012;5.048;2023-05-14T01:37:27;17.83;;;12.07;;
16660;SDS011;8444;52.012;5.048;2023-05-14T01:39:54;18.55;;;11.27;;
16660;SDS011;8444;52.012;5.048;2023-05-14T01:42:19;18.98;;;11.68;;
16660;SDS011;8444;52.012;5.048;2023-05-14T01:44:45;19.05;;;12.38;;
16660;SDS011;8444;52.012;5.048;2023-05-14T01:47:11;20.67;;;11.77;;
16660;SDS011;8444;52.012;5.048;2023-05-14T01:49:36;19.47;;;12.07;;
16660;SDS011;8444;52.012;5.048;2023-05-14T01:52:01;18.20;;;11.98;;
16660;SDS011;8444;52.012;5.048;2023-05-14T01:54:27;16.88;;;12.07;;
16660;SDS011;8444;52.012;5.048;2023-05-14T01:56:52;20.97;;;12.63;;
16660;SDS011;8444;52.012;5.048;2023-05-14T01:59:17;24.13;;;11.90;;
16660;SDS011;8444;52.012;5.048;2023-05-14T02:01:42;19.58;;;11.90;;
16660;SDS011;8444;52.012;5.048;2023-05-14T02:04:07;23.45;;;12.90;;
16660;SDS011;8444;52.012;5.048;2023-05-14T02:06:33;16.83;;;11.38;;
16660;SDS011;8444;52.012;5.048;2023-05-14T02:08:58;17.43;;;12.03;;
16660;SDS011;8444;52.012;5.048;2023-05-14T02:11:23;15.83;;;10.57;;
16660;SDS011;8444;52.012;5.048;2023-05-14T02:13:48;23.17;;;13.43;;
16660;SDS011;8444;52.012;5.048;2023-05-14T02:16:14;20.63;;;13.37;;
16660;SDS011;8444;52.012;5.048;2023-05-14T02:18:39;21.17;;;12.53;;
16660;SDS011;8444;52.012;5.048;2023-05-14T02:21:04;16.95;;;11.57;;
16660;SDS011;8444;52.012;5.048;2023-05-14T02:23:30;18.35;;;11.80;;
16660;SDS011;8444;52.012;5.048;2023-05-14T02:25:55;18.30;;;11.80;;
16660;SDS011;8444;52.012;5.048;2023-05-14T02:28:20;19.65;;;10.85;;
16660;SDS011;8444;52.012;5.048;2023-05-14T02:30:45;19.48;;;11.93;;
16660;SDS011;8444;52.012;5.048;2023-05-14T02:33:11;22.63;;;11.43;;
16660;SDS011;8444;52.012;5.048;2023-05-14T02:35:36;17.35;;;10.98;;
16660;SDS011;8444;52.012;5.048;2023-05-14T02:38:01;20.10;;;11.85;;
16660;SDS011;8444;52.012;5.048;2023-05-14T02:40:26;16.88;;;10.23;;
16660;SDS011;8444;52.012;5.048;2023-05-14T02:42:51;19.55;;;11.07;;
16660;SDS011;8444;52.012;5.048;2023-05-14T02:45:17;16.63;;;11.55;;
16660;SDS011;8444;52.012;5.048;2023-05-14T02:47:42;15.75;;;10.25;;
16660;SDS011;8444;52.012;5.048;2023-05-14T02:50:07;19.48;;;12.60;;
16660;SDS011;8444;52.012;5.048;2023-05-14T02:52:33;19.65;;;11.30;;
16660;SDS011;8444;52.012;5.048;2023-05-14T02:54:58;21.48;;;12.40;;
16660;SDS011;8444;52.012;5.048;2023-05-14T02:57:23;17.13;;;10.67;;
16660;SDS011;8444;52.012;5.048;2023-05-14T02:59:48;18.47;;;10.93;;
16660;SDS011;8444;52.012;5.048;2023-05-14T03:02:13;15.07;;;10.40;;
16660;SDS011;8444;52.012;5.048;2023-05-14T03:04:39;16.87;;;10.23;;
16660;SDS011;8444;52.012;5.048;2023-05-14T03:07:04;15.00;;;10.82;;
16660;SDS011;8444;52.012;5.048;2023-05-14T03:09:29;20.33;;;11.13;;
16660;SDS011;8444;52.012;5.048;2023-05-14T03:11:55;19.20;;;10.27;;
16660;SDS011;8444;52.012;5.048;2023-05-14T03:14:21;20.25;;;12.90;;
16660;SDS011;8444;52.012;5.048;2023-05-14T03:16:46;20.33;;;12.37;;
16660;SDS011;8444;52.012;5.048;2023-05-14T03:19:11;22.63;;;13.00;;
16660;SDS011;8444;52.012;5.048;2023-05-14T03:21:37;19.17;;;11.07;;
16660;SDS011;8444;52.012;5.048;2023-05-14T03:24:02;20.52;;;11.85;;
16660;SDS011;8444;52.012;5.048;2023-05-14T03:26:27;19.45;;;12.65;;
16660;SDS011;8444;52.012;5.048;2023-05-14T03:28:52;20.37;;;12.13;;
16660;SDS011;8444;52.012;5.048;2023-05-14T03:31:17;20.17;;;11.90;;
16660;SDS011;8444;52.012;5.048;2023-05-14T03:33:43;17.50;;;11.80;;
16660;SDS011;8444;52.012;5.048;2023-05-14T03:36:08;20.73;;;12.17;;
16660;SDS011;8444;52.012;5.048;2023-05-14T03:38:33;19.03;;;11.93;;
16660;SDS011;8444;52.012;5.048;2023-05-14T03:40:58;19.75;;;13.00;;
16660;SDS011;8444;52.012;5.048;2023-05-14T03:43:24;21.50;;;12.43;;
16660;SDS011;8444;52.012;5.048;2023-05-14T03:45:49;20.67;;;12.73;;
16660;SDS011;8444;52.012;5.048;2023-05-14T03:48:16;19.83;;;13.20;;
16660;SDS011;8444;52.012;5.048;2023-05-14T03:50:41;18.90;;;12.37;;
16660;SDS011;8444;52.012;5.048;2023-05-14T03:53:07;21.23;;;12.48;;
16660;SDS011;8444;52.012;5.048;2023-05-14T03:55:32;21.73;;;12.33;;
16660;SDS011;8444;52.012;5.048;2023-05-14T03:57:57;19.33;;;11.73;;
16660;SDS011;8444;52.012;5.048;2023-05-14T04:00:22;17.90;;;12.10;;
16660;SDS011;8444;52.012;5.048;2023-05-14T04:02:48;19.53;;;11.80;;
16660;SDS011;8444;52.012;5.048;2023-05-14T04:05:13;18.67;;;12.88;;
16660;SDS011;8444;52.012;5.048;2023-05-14T04:07:38;19.57;;;12.30;;
16660;SDS011;8444;52.012;5.048;2023-05-14T04:10:03;18.77;;;11.25;;
16660;SDS011;8444;52.012;5.048;2023-05-14T04:12:29;21.75;;;12.98;;
16660;SDS011;8444;52.012;5.048;2023-05-14T04:14:55;18.67;;;10.90;;
16660;SDS011;8444;52.012;5.048;2023-05-14T04:17:20;21.58;;;11.93;;
16660;SDS011;8444;52.012;5.048;2023-05-14T04:19:45;22.70;;;12.97;;
16660;SDS011;8444;52.012;5.048;2023-05-14T04:22:11;19.63;;;12.23;;
16660;SDS011;8444;52.012;5.048;2023-05-14T04:24:36;17.98;;;10.57;;
16660;SDS011;8444;52.012;5.048;2023-05-14T04:27:01;18.02;;;11.75;;
16660;SDS011;8444;52.012;5.048;2023-05-14T04:29:26;21.90;;;13.18;;
16660;SDS011;8444;52.012;5.048;2023-05-14T04:31:52;17.98;;;11.73;;
16660;SDS011;8444;52.012;5.048;2023-05-14T04:34:17;17.20;;;11.82;;
16660;SDS011;8444;52.012;5.048;2023-05-14T04:36:42;16.63;;;12.13;;
16660;SDS011;8444;52.012;5.048;2023-05-14T04:39:07;23.50;;;11.85;;
16660;SDS011;8444;52.012;5.048;2023-05-14T04:41:36;17.70;;;10.98;;
16660;SDS011;8444;52.012;5.048;2023-05-14T04:44:01;18.05;;;10.85;;
16660;SDS011;8444;52.012;5.048;2023-05-14T04:46:27;19.77;;;10.15;;
16660;SDS011;8444;52.012;5.048;2023-05-14T04:48:52;18.55;;;11.43;;
16660;SDS011;8444;52.012;5.048;2023-05-14T04:51:17;14.43;;;10.10;;
16660;SDS011;8444;52.012;5.048;2023-05-14T04:53:43;14.85;;;11.13;;
16660;SDS011;8444;52.012;5.048;2023-05-14T04:56:08;18.73;;;11.57;;
16660;SDS011;8444;52.012;5.048;2023-05-14T04:58:33;16.08;;;10.05;;
16660;SDS011;8444;52.012;5.048;2023-05-14T05:00:59;13.70;;;10.13;;
16660;SDS011;8444;52.012;5.048;2023-05-14T05:03:25;20.10;;;11.52;;
16660;SDS011;8444;52.012;5.048;2023-05-14T05:05:50;22.05;;;10.23;;
16660;SDS011;8444;52.012;5.048;2023-05-14T05:08:16;17.58;;;10.77;;
16660;SDS011;8444;52.012;5.048;2023-05-14T05:10:41;14.35;;;10.52;;
16660;SDS011;8444;52.012;5.048;2023-05-14T05:13:06;18.27;;;11.57;;
16660;SDS011;8444;52.012;5.048;2023-05-14T05:15:31;15.00;;;10.57;;
16660;SDS011;8444;52.012;5.048;2023-05-14T05:17:56;14.48;;;9.73;;
16660;SDS011;8444;52.012;5.048;2023-05-14T05:20:22;14.27;;;10.18;;
16660;SDS011;8444;52.012;5.048;2023-05-14T05:22:48;18.65;;;11.25;;
16660;SDS011;8444;52.012;5.048;2023-05-14T05:25:14;19.05;;;9.82;;
16660;SDS011;8444;52.012;5.048;2023-05-14T05:27:39;14.90;;;9.05;;
16660;SDS011;8444;52.012;5.048;2023-05-14T05:30:04;18.88;;;9.68;;
16660;SDS011;8444;52.012;5.048;2023-05-14T05:32:30;17.23;;;9.88;;
16660;SDS011;8444;52.012;5.048;2023-05-14T05:34:55;17.30;;;10.05;;
16660;SDS011;8444;52.012;5.048;2023-05-14T05:37:20;14.15;;;10.35;;
16660;SDS011;8444;52.012;5.048;2023-05-14T05:39:46;15.45;;;9.15;;
16660;SDS011;8444;52.012;5.048;2023-05-14T05:42:12;15.40;;;9.13;;
16660;SDS011;8444;52.012;5.048;2023-05-14T05:44:37;18.05;;;9.68;;
16660;SDS011;8444;52.012;5.048;2023-05-14T05:47:02;13.88;;;8.18;;
16660;SDS011;8444;52.012;5.048;2023-05-14T05:49:27;20.08;;;8.98;;
16660;SDS011;8444;52.012;5.048;2023-05-14T05:51:53;12.20;;;9.35;;
16660;SDS011;8444;52.012;5.048;2023-05-14T05:54:18;15.23;;;9.02;;
16660;SDS011;8444;52.012;5.048;2023-05-14T05:56:43;11.35;;;8.65;;
16660;SDS011;8444;52.012;5.048;2023-05-14T05:59:08;14.07;;;9.40;;
16660;SDS011;8444;52.012;5.048;2023-05-14T06:01:33;13.07;;;8.25;;
16660;SDS011;8444;52.012;5.048;2023-05-14T06:03:59;13.07;;;7.78;;
16660;SDS011;8444;52.012;5.048;2023-05-14T06:06:24;13.40;;;8.45;;
16660;SDS011;8444;52.012;5.048;2023-05-14T06:08:49;10.70;;;8.00;;
16660;SDS011;8444;52.012;5.048;2023-05-14T06:11:15;9.07;;;6.93;;
16660;SDS011;8444;52.012;5.048;2023-05-14T06:13:40;10.75;;;8.00;;
16660;SDS011;8444;52.012;5.048;2023-05-14T06:16:06;13.43;;;7.80;;
16660;SDS011;8444;52.012;5.048;2023-05-14T06:18:31;9.10;;;7.53;;
16660;SDS011;8444;52.012;5.048;2023-05-14T06:20:56;11.63;;;7.57;;
16660;SDS011;8444;52.012;5.048;2023-05-14T06:23:23;14.90;;;7.18;;
16660;SDS011;8444;52.012;5.048;2023-05-14T06:25:50;10.45;;;7.22;;
16660;SDS011;8444;52.012;5.048;2023-05-14T06:28:15;12.57;;;7.75;;
16660;SDS011;8444;52.012;5.048;2023-05-14T06:30:40;15.35;;;8.23;;
16660;SDS011;8444;52.012;5.048;2023-05-14T06:33:05;11.68;;;7.63;;
16660;SDS011;8444;52.012;5.048;2023-05-14T06:35:31;16.98;;;8.50;;
16660;SDS011;8444;52.012;5.048;2023-05-14T06:37:56;10.57;;;8.10;;
16660;SDS011;8444;52.012;5.048;2023-05-14T06:40:21;10.05;;;7.32;;
16660;SDS011;8444;52.012;5.048;2023-05-14T06:42:47;15.57;;;8.68;;
16660;SDS011;8444;52.012;5.048;2023-05-14T06:45:12;14.70;;;8.40;;
16660;SDS011;8444;52.012;5.048;2023-05-14T06:47:37;14.13;;;8.27;;
16660;SDS011;8444;52.012;5.048;2023-05-14T06:50:02;13.45;;;8.50;;
16660;SDS011;8444;52.012;5.048;2023-05-14T06:52:28;9.95;;;7.28;;
16660;SDS011;8444;52.012;5.048;2023-05-14T06:54:53;11.85;;;7.28;;
16660;SDS011;8444;52.012;5.048;2023-05-14T06:57:18;11.18;;;7.50;;
16660;SDS011;8444;52.012;5.048;2023-05-14T06:59:44;11.90;;;7.55;;
16660;SDS011;8444;52.012;5.048;2023-05-14T07:02:09;12.10;;;8.07;;
16660;SDS011;8444;52.012;5.048;2023-05-14T07:04:34;10.52;;;7.15;;
16660;SDS011;8444;52.012;5.048;2023-05-14T07:07:00;12.00;;;7.68;;
16660;SDS011;8444;52.012;5.048;2023-05-14T07:09:25;10.68;;;7.43;;
16660;SDS011;8444;52.012;5.048;2023-05-14T07:11:50;12.13;;;8.37;;
16660;SDS011;8444;52.012;5.048;2023-05-14T07:14:15;13.20;;;7.20;;
16660;SDS011;8444;52.012;5.048;2023-05-14T07:16:41;10.68;;;7.38;;
16660;SDS011;8444;52.012;5.048;2023-05-14T07:19:06;10.13;;;7.20;;
16660;SDS011;8444;52.012;5.048;2023-05-14T07:21:32;11.20;;;6.90;;
16660;SDS011;8444;52.012;5.048;2023-05-14T07:23:57;10.77;;;7.53;;
16660;SDS011;8444;52.012;5.048;2023-05-14T07:26:22;10.57;;;6.65;;
16660;SDS011;8444;52.012;5.048;2023-05-14T07:28:48;18.30;;;8.13;;
16660;SDS011;8444;52.012;5.048;2023-05-14T07:31:13;8.50;;;7.18;;
16660;SDS011;8444;52.012;5.048;2023-05-14T07:33:38;12.17;;;7.70;;
16660;SDS011;8444;52.012;5.048;2023-05-14T07:36:04;9.27;;;6.73;;
16660;SDS011;8444;52.012;5.048;2023-05-14T07:38:29;10.38;;;7.35;;
16660;SDS011;8444;52.012;5.048;2023-05-14T07:40:55;9.02;;;6.55;;
16660;SDS011;8444;52.012;5.048;2023-05-14T07:43:20;9.45;;;6.05;;
16660;SDS011;8444;52.012;5.048;2023-05-14T07:45:45;8.98;;;5.53;;
16660;SDS011;8444;52.012;5.048;2023-05-14T07:48:11;6.85;;;5.45;;
16660;SDS011;8444;52.012;5.048;2023-05-14T07:50:36;8.03;;;5.70;;
16660;SDS011;8444;52.012;5.048;2023-05-14T07:53:01;6.90;;;5.90;;
16660;SDS011;8444;52.012;5.048;2023-05-14T07:55:26;9.02;;;6.25;;
16660;SDS011;8444;52.012;5.048;2023-05-14T07:57:52;8.73;;;5.90;;
16660;SDS011;8444;52.012;5.048;2023-05-14T08:00:17;8.33;;;5.37;;
16660;SDS011;8444;52.012;5.048;2023-05-14T08:02:42;9.20;;;6.00;;
16660;SDS011;8444;52.012;5.048;2023-05-14T08:05:08;7.45;;;5.70;;
16660;SDS011;8444;52.012;5.048;2023-05-14T08:07:33;7.32;;;5.30;;
16660;SDS011;8444;52.012;5.048;2023-05-14T08:09:58;6.57;;;5.10;;
16660;SDS011;8444;52.012;5.048;2023-05-14T08:12:24;13.10;;;4.95;;
16660;SDS011;8444;52.012;5.048;2023-05-14T08:14:50;5.93;;;5.32;;
16660;SDS011;8444;52.012;5.048;2023-05-14T08:17:15;7.65;;;5.20;;
16660;SDS011;8444;52.012;5.048;2023-05-14T08:19:41;9.67;;;5.03;;
16660;SDS011;8444;52.012;5.048;2023-05-14T08:22:06;8.60;;;4.63;;
16660;SDS011;8444;52.012;5.048;2023-05-14T08:24:31;6.57;;;4.67;;
16660;SDS011;8444;52.012;5.048;2023-05-14T08:26:56;9.63;;;4.78;;
16660;SDS011;8444;52.012;5.048;2023-05-14T08:29:21;6.85;;;4.57;;
16660;SDS011;8444;52.012;5.048;2023-05-14T08:31:48;6.43;;;4.30;;
16660;SDS011;8444;52.012;5.048;2023-05-14T08:34:13;6.97;;;4.30;;
16660;SDS011;8444;52.012;5.048;2023-05-14T08:36:38;6.32;;;4.00;;
16660;SDS011;8444;52.012;5.048;2023-05-14T08:39:04;6.55;;;4.05;;
16660;SDS011;8444;52.012;5.048;2023-05-14T08:41:31;5.97;;;4.18;;
16660;SDS011;8444;52.012;5.048;2023-05-14T08:44:05;5.50;;;4.15;;
16660;SDS011;8444;52.012;5.048;2023-05-14T08:46:32;7.40;;;3.83;;
16660;SDS011;8444;52.012;5.048;2023-05-14T08:49:05;7.85;;;4.70;;
16660;SDS011;8444;52.012;5.048;2023-05-14T08:51:32;6.13;;;4.47;;
16660;SDS011;8444;52.012;5.048;2023-05-14T08:53:58;10.40;;;5.05;;
16660;SDS011;8444;52.012;5.048;2023-05-14T08:56:26;6.95;;;5.25;;
16660;SDS011;8444;52.012;5.048;2023-05-14T08:58:51;7.72;;;4.45;;
16660;SDS011;8444;52.012;5.048;2023-05-14T09:01:17;10.30;;;4.50;;
16660;SDS011;8444;52.012;5.048;2023-05-14T09:03:42;6.93;;;4.40;;
16660;SDS011;8444;52.012;5.048;2023-05-14T09:06:08;7.28;;;5.13;;
16660;SDS011;8444;52.012;5.048;2023-05-14T09:08:42;13.45;;;4.90;;
16660;SDS011;8444;52.012;5.048;2023-05-14T09:11:08;5.95;;;4.63;;
16660;SDS011;8444;52.012;5.048;2023-05-14T09:13:35;5.95;;;3.85;;
16660;SDS011;8444;52.012;5.048;2023-05-14T09:16:00;6.57;;;4.10;;
16660;SDS011;8444;52.012;5.048;2023-05-14T09:18:26;5.80;;;4.55;;
16660;SDS011;8444;52.012;5.048;2023-05-14T09:20:51;8.55;;;5.20;;
16660;SDS011;8444;52.012;5.048;2023-05-14T09:23:16;7.32;;;5.20;;
16660;SDS011;8444;52.012;5.048;2023-05-14T09:25:42;9.60;;;4.90;;
16660;SDS011;8444;52.012;5.048;2023-05-14T09:28:09;6.78;;;4.10;;
16660;SDS011;8444;52.012;5.048;2023-05-14T09:30:34;12.32;;;4.22;;
16660;SDS011;8444;52.012;5.048;2023-05-14T09:33:01;6.55;;;4.38;;
16660;SDS011;8444;52.012;5.048;2023-05-14T09:35:27;6.75;;;4.00;;
16660;SDS011;8444;52.012;5.048;2023-05-14T09:37:53;6.40;;;3.78;;
16660;SDS011;8444;52.012;5.048;2023-05-14T09:40:20;6.45;;;4.50;;
16660;SDS011;8444;52.012;5.048;2023-05-14T09:42:45;4.72;;;3.63;;
16660;SDS011;8444;52.012;5.048;2023-05-14T09:45:10;7.82;;;4.70;;
16660;SDS011;8444;52.012;5.048;2023-05-14T09:47:36;5.00;;;3.60;;
16660;SDS011;8444;52.012;5.048;2023-05-14T09:50:02;8.75;;;4.90;;
16660;SDS011;8444;52.012;5.048;2023-05-14T09:52:27;5.88;;;3.85;;
16660;SDS011;8444;52.012;5.048;2023-05-14T09:54:53;7.88;;;4.20;;
16660;SDS011;8444;52.012;5.048;2023-05-14T09:57:18;7.55;;;4.10;;
16660;SDS011;8444;52.012;5.048;2023-05-14T09:59:44;9.65;;;4.43;;
16660;SDS011;8444;52.012;5.048;2023-05-14T10:02:35;7.65;;;4.25;;
16660;SDS011;8444;52.012;5.048;2023-05-14T10:04:58;7.22;;;3.72;;
16660;SDS011;8444;52.012;5.048;2023-05-14T10:07:26;7.15;;;3.70;;
16660;SDS011;8444;52.012;5.048;2023-05-14T10:09:53;7.00;;;4.28;;
16660;SDS011;8444;52.012;5.048;2023-05-14T10:12:20;9.55;;;4.40;;
16660;SDS011;8444;52.012;5.048;2023-05-14T10:14:46;7.35;;;4.07;;
16660;SDS011;8444;52.012;5.048;2023-05-14T10:17:17;6.28;;;3.92;;
16660;SDS011;8444;52.012;5.048;2023-05-14T10:19:48;6.70;;;3.80;;
16660;SDS011;8444;52.012;5.048;2023-05-14T10:22:14;5.72;;;3.47;;
16660;SDS011;8444;52.012;5.048;2023-05-14T10:24:41;9.23;;;4.32;;
16660;SDS011;8444;52.012;5.048;2023-05-14T10:27:06;7.75;;;4.35;;
16660;SDS011;8444;52.012;5.048;2023-05-14T10:29:35;5.45;;;3.78;;
16660;SDS011;8444;52.012;5.048;2023-05-14T10:32:04;7.00;;;3.97;;
16660;SDS011;8444;52.012;5.048;2023-05-14T10:34:31;7.05;;;3.50;;
16660;SDS011;8444;52.012;5.048;2023-05-14T10:37:00;6.22;;;3.50;;
16660;SDS011;8444;52.012;5.048;2023-05-14T10:40:08;10.63;;;4.07;;
16660;SDS011;8444;52.012;5.048;2023-05-14T10:42:20;10.32;;;4.28;;
16660;SDS011;8444;52.012;5.048;2023-05-14T10:44:47;9.65;;;4.10;;
16660;SDS011;8444;52.012;5.048;2023-05-14T10:47:13;4.82;;;3.20;;
16660;SDS011;8444;52.012;5.048;2023-05-14T10:49:40;8.07;;;3.75;;
16660;SDS011;8444;52.012;5.048;2023-05-14T10:52:07;9.60;;;4.22;;
16660;SDS011;8444;52.012;5.048;2023-05-14T10:54:34;3.88;;;3.00;;
16660;SDS011;8444;52.012;5.048;2023-05-14T10:56:59;6.10;;;3.55;;
16660;SDS011;8444;52.012;5.048;2023-05-14T10:59:26;9.70;;;4.27;;
16660;SDS011;8444;52.012;5.048;2023-05-14T11:01:51;5.65;;;4.13;;
16660;SDS011;8444;52.012;5.048;2023-05-14T11:04:17;8.93;;;3.57;;
16660;SDS011;8444;52.012;5.048;2023-05-14T11:06:42;9.73;;;4.50;;
16660;SDS011;8444;52.012;5.048;2023-05-14T11:09:08;5.45;;;3.72;;
16660;SDS011;8444;52.012;5.048;2023-05-14T11:11:34;5.47;;;3.47;;
16660;SDS011;8444;52.012;5.048;2023-05-14T11:13:59;9.45;;;3.50;;
16660;SDS011;8444;52.012;5.048;2023-05-14T11:16:24;10.13;;;4.17;;
16660;SDS011;8444;52.012;5.048;2023-05-14T11:19:01;9.05;;;3.60;;
16660;SDS011;8444;52.012;5.048;2023-05-14T11:21:27;9.20;;;3.30;;
16660;SDS011;8444;52.012;5.048;2023-05-14T11:23:53;8.48;;;4.18;;
16660;SDS011;8444;52.012;5.048;2023-05-14T11:26:18;8.88;;;3.85;;
16660;SDS011;8444;52.012;5.048;2023-05-14T11:28:43;5.50;;;3.33;;
16660;SDS011;8444;52.012;5.048;2023-05-14T11:31:09;4.00;;;3.28;;
16660;SDS011;8444;52.012;5.048;2023-05-14T11:33:34;5.70;;;3.57;;
16660;SDS011;8444;52.012;5.048;2023-05-14T11:36:00;5.45;;;3.42;;
16660;SDS011;8444;52.012;5.048;2023-05-14T11:38:25;7.13;;;3.93;;
16660;SDS011;8444;52.012;5.048;2023-05-14T11:40:51;4.90;;;3.38;;
16660;SDS011;8444;52.012;5.048;2023-05-14T11:43:17;4.45;;;3.47;;
16660;SDS011;8444;52.012;5.048;2023-05-14T11:45:42;5.72;;;3.50;;
16660;SDS011;8444;52.012;5.048;2023-05-14T11:48:10;6.23;;;3.23;;
16660;SDS011;8444;52.012;5.048;2023-05-14T11:50:35;4.70;;;3.22;;
16660;SDS011;8444;52.012;5.048;2023-05-14T11:53:01;5.40;;;3.17;;
16660;SDS011;8444;52.012;5.048;2023-05-14T11:55:26;6.30;;;4.43;;
16660;SDS011;8444;52.012;5.048;2023-05-14T11:57:51;9.60;;;3.72;;
16660;SDS011;8444;52.012;5.048;2023-05-14T12:00:16;5.47;;;2.97;;
16660;SDS011;8444;52.012;5.048;2023-05-14T12:02:46;4.43;;;3.65;;
16660;SDS011;8444;52.012;5.048;2023-05-14T12:05:12;11.80;;;3.50;;
16660;SDS011;8444;52.012;5.048;2023-05-14T12:07:37;4.85;;;3.58;;
16660;SDS011;8444;52.012;5.048;2023-05-14T12:10:03;7.18;;;3.70;;
16660;SDS011;8444;52.012;5.048;2023-05-14T12:12:33;9.48;;;3.35;;
16660;SDS011;8444;52.012;5.048;2023-05-14T12:14:58;4.82;;;3.60;;
16660;SDS011;8444;52.012;5.048;2023-05-14T12:17:23;4.30;;;3.30;;
16660;SDS011;8444;52.012;5.048;2023-05-14T12:19:52;5.70;;;3.37;;
16660;SDS011;8444;52.012;5.048;2023-05-14T12:22:18;4.95;;;3.20;;
16660;SDS011;8444;52.012;5.048;2023-05-14T12:24:53;4.90;;;3.00;;
16660;SDS011;8444;52.012;5.048;2023-05-14T12:27:23;6.38;;;3.00;;
16660;SDS011;8444;52.012;5.048;2023-05-14T12:29:49;5.75;;;2.60;;
16660;SDS011;8444;52.012;5.048;2023-05-14T12:32:17;4.38;;;3.30;;
16660;SDS011;8444;52.012;5.048;2023-05-14T12:34:43;6.13;;;2.85;;
16660;SDS011;8444;52.012;5.048;2023-05-14T12:37:09;6.70;;;2.92;;
16660;SDS011;8444;52.012;5.048;2023-05-14T12:39:34;10.43;;;3.00;;
16660;SDS011;8444;52.012;5.048;2023-05-14T12:41:59;4.03;;;3.05;;
16660;SDS011;8444;52.012;5.048;2023-05-14T12:44:25;3.97;;;3.08;;
16660;SDS011;8444;52.012;5.048;2023-05-14T12:46:50;4.23;;;2.77;;
16660;SDS011;8444;52.012;5.048;2023-05-14T12:49:15;4.50;;;3.25;;
16660;SDS011;8444;52.012;5.048;2023-05-14T12:51:40;3.28;;;2.90;;
16660;SDS011;8444;52.012;5.048;2023-05-14T12:54:06;4.20;;;2.40;;
16660;SDS011;8444;52.012;5.048;2023-05-14T12:56:31;3.67;;;2.90;;
16660;SDS011;8444;52.012;5.048;2023-05-14T12:58:56;5.43;;;3.63;;
16660;SDS011;8444;52.012;5.048;2023-05-14T13:01:21;3.53;;;2.95;;
16660;SDS011;8444;52.012;5.048;2023-05-14T13:03:47;3.72;;;2.78;;
16660;SDS011;8444;52.012;5.048;2023-05-14T13:06:12;4.97;;;3.00;;
16660;SDS011;8444;52.012;5.048;2023-05-14T13:08:37;3.97;;;2.90;;
16660;SDS011;8444;52.012;5.048;2023-05-14T13:11:02;3.83;;;2.87;;
16660;SDS011;8444;52.012;5.048;2023-05-14T13:13:28;4.77;;;2.70;;
16660;SDS011;8444;52.012;5.048;2023-05-14T13:15:53;5.55;;;3.00;;
16660;SDS011;8444;52.012;5.048;2023-05-14T13:18:18;4.30;;;2.83;;
16660;SDS011;8444;52.012;5.048;2023-05-14T13:20:44;4.20;;;3.40;;
16660;SDS011;8444;52.012;5.048;2023-05-14T13:23:09;4.20;;;3.13;;
16660;SDS011;8444;52.012;5.048;2023-05-14T13:25:34;5.95;;;2.88;;
16660;SDS011;8444;52.012;5.048;2023-05-14T13:28:00;9.00;;;3.23;;
16660;SDS011;8444;52.012;5.048;2023-05-14T13:30:25;5.95;;;3.40;;
16660;SDS011;8444;52.012;5.048;2023-05-14T13:32:50;8.32;;;3.40;;
16660;SDS011;8444;52.012;5.048;2023-05-14T13:35:16;7.13;;;3.17;;
16660;SDS011;8444;52.012;5.048;2023-05-14T13:37:42;4.15;;;3.60;;
16660;SDS011;8444;52.012;5.048;2023-05-14T13:40:07;6.45;;;3.45;;
16660;SDS011;8444;52.012;5.048;2023-05-14T13:42:32;5.07;;;3.03;;
16660;SDS011;8444;52.012;5.048;2023-05-14T13:44:58;5.68;;;3.03;;
16660;SDS011;8444;52.012;5.048;2023-05-14T13:47:23;4.90;;;2.97;;
16660;SDS011;8444;52.012;5.048;2023-05-14T13:49:49;4.80;;;3.67;;
16660;SDS011;8444;52.012;5.048;2023-05-14T13:52:14;6.85;;;3.30;;
16660;SDS011;8444;52.012;5.048;2023-05-14T13:54:40;4.25;;;3.30;;
16660;SDS011;8444;52.012;5.048;2023-05-14T13:57:05;6.53;;;3.13;;
16660;SDS011;8444;52.012;5.048;2023-05-14T13:59:30;4.22;;;3.08;;
16660;SDS011;8444;52.012;5.048;2023-05-14T14:01:55;6.20;;;3.23;;
16660;SDS011;8444;52.012;5.048;2023-05-14T14:04:20;5.83;;;3.53;;
16660;SDS011;8444;52.012;5.048;2023-05-14T14:06:47;3.97;;;3.22;;
16660;SDS011;8444;52.012;5.048;2023-05-14T14:09:13;4.95;;;3.38;;
16660;SDS011;8444;52.012;5.048;2023-05-14T14:11:39;4.35;;;3.83;;
16660;SDS011;8444;52.012;5.048;2023-05-14T14:14:04;8.73;;;4.03;;
16660;SDS011;8444;52.012;5.048;2023-05-14T14:16:30;5.47;;;4.40;;
16660;SDS011;8444;52.012;5.048;2023-05-14T14:18:55;6.00;;;3.67;;
16660;SDS011;8444;52.012;5.048;2023-05-14T14:21:21;8.52;;;4.25;;
16660;SDS011;8444;52.012;5.048;2023-05-14T14:23:46;6.00;;;4.30;;
16660;SDS011;8444;52.012;5.048;2023-05-14T14:26:12;6.25;;;4.20;;
16660;SDS011;8444;52.012;5.048;2023-05-14T14:28:37;8.80;;;5.13;;
16660;SDS011;8444;52.012;5.048;2023-05-14T14:31:02;8.38;;;5.05;;
16660;SDS011;8444;52.012;5.048;2023-05-14T14:33:27;6.43;;;4.33;;
16660;SDS011;8444;52.012;5.048;2023-05-14T14:35:53;9.07;;;3.93;;
16660;SDS011;8444;52.012;5.048;2023-05-14T14:38:18;8.00;;;4.43;;
16660;SDS011;8444;52.012;5.048;2023-05-14T14:40:43;8.65;;;4.45;;
16660;SDS011;8444;52.012;5.048;2023-05-14T14:43:10;8.32;;;4.57;;